Time;durP1;ratioP1;P1;durP2;ratioP2;P2;SDS_P1;SDS_P2;PMS_P1;PMS_P2;Temp;Humidity;BMP_temperature;BMP_pressure;BME280_temperature;BME280_humidity;BME280_pressure;Samples;Min_cycle;Max_cycle;Signal;HPM_P1;HPM_P2
2021/08/01 00:02:20;;;;;;;4.15;1.52;;;21.70;57.80;;;;;;10011256;28;20066;-60
2021/08/01 00:07:10;;;;;;;3.05;1.75;;;21.70;58.00;;;;;;9996556;28;20060;-60
2021/08/01 00:12:01;;;;;;;3.70;1.85;;;21.50;58.50;;;;;;10009505;28;20026;-61
2021/08/01 00:16:52;;;;;;;4.10;1.95;;;21.70;58.20;;;;;;10009261;28;20649;-60
2021/08/01 00:21:43;;;;;;;3.42;1.90;;;21.60;58.50;;;;;;10009534;28;20096;-61
2021/08/01 00:26:33;;;;;;;3.80;2.08;;;21.50;58.80;;;;;;10012227;28;20022;-60
2021/08/01 00:31:24;;;;;;;5.00;2.10;;;21.50;58.80;;;;;;10010285;28;20030;-60
2021/08/01 00:36:15;;;;;;;3.28;2.30;;;21.40;58.80;;;;;;9997536;28;20117;-60
2021/08/01 00:41:06;;;;;;;5.38;2.28;;;21.40;58.80;;;;;;10011516;28;20041;-60
2021/08/01 00:45:57;;;;;;;2.65;1.90;;;21.40;59.00;;;;;;10000381;28;20045;-60
2021/08/01 00:50:47;;;;;;;3.25;2.20;;;21.40;59.20;;;;;;10009144;28;20026;-60
2021/08/01 00:55:40;;;;;;;3.90;2.38;;;21.30;59.60;;;;;;10012303;28;20040;-60
2021/08/01 01:05:28;;;;;;;3.90;2.28;;;21.10;61.30;;;;;;10010016;28;20030;-59
2021/08/01 01:10:29;;;;;;;6.70;2.40;;;20.90;62.70;;;;;;10011115;28;20033;-61
2021/08/01 01:15:23;;;;;;;2.40;2.20;;;20.70;63.60;;;;;;10008705;28;20081;-60
2021/08/01 01:20:17;;;;;;;2.45;2.15;;;20.60;64.00;;;;;;10009874;28;20036;-59
2021/08/01 01:25:18;;;;;;;4.32;2.38;;;20.60;64.70;;;;;;10009283;28;20100;-60
2021/08/01 01:30:09;;;;;;;5.53;2.33;;;20.40;65.80;;;;;;10005975;28;20022;-61
2021/08/01 01:35:16;;;;;;;7.03;2.28;;;20.30;66.40;;;;;;10008404;28;20637;-60
2021/08/01 01:40:08;;;;;;;3.58;2.45;;;20.50;67.00;;;;;;9996131;28;20026;-64
2021/08/01 01:45:01;;;;;;;2.88;2.15;;;20.40;67.00;;;;;;10015269;28;20057;-61
2021/08/01 01:49:56;;;;;;;3.88;2.30;;;20.30;67.90;;;;;;10009889;28;20029;-61
2021/08/01 01:54:47;;;;;;;3.33;2.03;;;20.20;68.60;;;;;;10003634;28;20100;-61
2021/08/01 01:59:38;;;;;;;5.47;1.80;;;20.00;69.40;;;;;;10007332;28;20033;-61
2021/08/01 02:04:29;;;;;;;2.83;2.47;;;19.90;69.70;;;;;;10009714;28;20300;-61
2021/08/01 02:09:34;;;;;;;3.33;2.05;;;19.80;70.00;;;;;;10007249;28;20180;-60
2021/08/01 02:14:32;;;;;;;4.95;1.88;;;19.90;70.20;;;;;;9999190;28;20058;-61
2021/08/01 02:19:25;;;;;;;5.43;1.92;;;20.00;70.10;;;;;;10007176;28;20029;-59
2021/08/01 02:24:18;;;;;;;2.78;1.73;;;19.80;70.50;;;;;;10006375;28;20117;-59
2021/08/01 02:29:10;;;;;;;4.10;2.33;;;19.90;70.60;;;;;;10003044;28;20018;-59
2021/08/01 02:34:01;;;;;;;1.95;1.65;;;19.80;71.00;;;;;;10004932;28;20326;-60
2021/08/01 02:38:55;;;;;;;4.60;2.45;;;19.90;70.90;;;;;;10013241;28;20025;-60
2021/08/01 02:43:48;;;;;;;3.05;1.85;;;20.00;71.00;;;;;;10007847;28;20037;-60
2021/08/01 02:48:40;;;;;;;2.47;1.70;;;19.90;71.00;;;;;;10016127;28;20342;-60
2021/08/01 02:53:39;;;;;;;2.15;1.83;;;19.90;71.60;;;;;;10001717;28;20385;-60
2021/08/01 02:58:31;;;;;;;2.78;1.77;;;19.80;71.80;;;;;;10015510;28;20026;-60
2021/08/01 03:03:23;;;;;;;4.50;2.00;;;19.80;72.10;;;;;;10016156;28;20127;-60
2021/08/01 03:08:14;;;;;;;4.53;2.00;;;19.80;72.30;;;;;;10013140;28;20022;-60
2021/08/01 03:13:04;;;;;;;5.15;2.53;;;19.70;72.50;;;;;;10015446;28;20042;-60
2021/08/01 03:17:55;;;;;;;2.42;1.83;;;19.50;72.80;;;;;;10014279;28;20030;-61
2021/08/01 03:22:46;;;;;;;3.10;2.80;;;19.50;73.10;;;;;;10008836;28;20073;-59
2021/08/01 03:27:36;;;;;;;4.88;2.20;;;19.60;73.20;;;;;;10005014;28;20026;-61
2021/08/01 03:32:27;;;;;;;2.55;2.15;;;19.50;73.60;;;;;;10001814;28;20092;-60
2021/08/01 03:37:18;;;;;;;3.28;2.05;;;19.70;73.60;;;;;;10009812;28;20033;-60
2021/08/01 03:42:08;;;;;;;3.60;2.03;;;19.60;74.50;;;;;;10002600;28;20038;-59
2021/08/01 03:46:59;;;;;;;2.70;1.95;;;19.80;73.60;;;;;;10001912;28;20118;-59
2021/08/01 03:51:50;;;;;;;3.65;1.90;;;19.80;73.80;;;;;;10008176;28;20116;-59
2021/08/01 03:56:44;;;;;;;3.97;2.00;;;19.60;74.10;;;;;;10005175;28;20113;-60
2021/08/01 04:01:36;;;;;;;4.05;2.90;;;19.50;74.60;;;;;;9998846;28;20092;-59
2021/08/01 04:06:27;;;;;;;2.38;1.70;;;19.50;74.80;;;;;;10009381;28;20634;-61
2021/08/01 04:11:18;;;;;;;5.18;1.90;;;19.40;75.00;;;;;;9997348;28;20432;-60
2021/08/01 04:16:09;;;;;;;2.65;2.30;;;19.50;75.00;;;;;;10006367;28;20049;-58
2021/08/01 04:20:59;;;;;;;1.60;1.50;;;19.50;75.30;;;;;;10008636;28;20046;-59
2021/08/01 04:25:50;;;;;;;1.75;1.60;;;19.50;75.10;;;;;;9993786;28;20037;-59
2021/08/01 04:30:41;;;;;;;3.95;1.88;;;19.40;75.30;;;;;;10004024;28;20460;-59
2021/08/01 04:35:31;;;;;;;2.72;1.40;;;19.40;75.30;;;;;;10008961;28;20833;-59
2021/08/01 04:40:22;;;;;;;3.20;1.38;;;19.10;75.50;;;;;;10001904;28;20107;-59
2021/08/01 04:45:12;;;;;;;1.63;1.23;;;19.20;75.50;;;;;;10009109;28;20030;-59
2021/08/01 04:50:03;;;;;;;1.92;1.77;;;19.10;75.50;;;;;;10007638;28;20037;-59
2021/08/01 04:54:54;;;;;;;3.05;1.40;;;19.10;75.30;;;;;;10007904;28;20037;-59
2021/08/01 04:59:45;;;;;;;3.33;1.75;;;19.20;75.20;;;;;;10006305;28;20030;-59
2021/08/01 05:04:35;;;;;;;3.83;1.20;;;19.20;74.90;;;;;;10007851;28;20038;-59
2021/08/01 05:09:26;;;;;;;2.70;1.45;;;19.10;75.10;;;;;;10008035;28;20029;-59
2021/08/01 05:14:17;;;;;;;1.90;1.17;;;18.90;75.30;;;;;;10006798;28;20052;-59
2021/08/01 05:19:07;;;;;;;2.22;1.60;;;18.80;75.60;;;;;;10005634;28;20522;-59
2021/08/01 05:23:58;;;;;;;2.50;1.58;;;18.80;75.60;;;;;;10007006;28;20554;-60
2021/08/01 05:28:49;;;;;;;2.55;1.73;;;18.90;75.30;;;;;;10005853;28;20073;-60
2021/08/01 05:33:39;;;;;;;3.90;2.13;;;18.80;75.40;;;;;;10007089;28;20447;-59
2021/08/01 05:38:30;;;;;;;2.45;1.90;;;19.10;75.00;;;;;;9999193;28;20060;-59
2021/08/01 05:43:20;;;;;;;2.35;1.40;;;19.00;75.20;;;;;;10005561;28;20403;-59
2021/08/01 05:48:11;;;;;;;2.25;1.50;;;19.00;75.50;;;;;;10004684;28;20033;-59
2021/08/01 05:53:02;;;;;;;3.33;1.77;;;18.90;75.80;;;;;;10007317;28;20389;-59
2021/08/01 05:57:52;;;;;;;3.63;2.30;;;19.10;75.20;;;;;;10006247;28;20113;-59
2021/08/01 06:02:43;;;;;;;5.65;2.03;;;19.10;75.20;;;;;;10006162;28;20042;-59
2021/08/01 06:07:34;;;;;;;2.17;1.20;;;19.20;75.60;;;;;;10013659;28;20080;-60
2021/08/01 06:12:24;;;;;;;2.35;1.63;;;19.10;75.80;;;;;;10011439;28;20508;-59
2021/08/01 06:17:15;;;;;;;2.67;1.63;;;19.20;75.90;;;;;;10013279;28;20053;-60
2021/08/01 06:22:06;;;;;;;2.42;1.42;;;19.20;76.40;;;;;;10011429;28;20120;-60
2021/08/01 06:26:57;;;;;;;5.28;2.42;;;19.30;76.10;;;;;;10011795;28;20037;-58
2021/08/01 06:31:48;;;;;;;3.72;2.10;;;19.20;76.50;;;;;;10012907;28;20033;-58
2021/08/01 06:36:38;;;;;;;1.90;1.70;;;19.30;76.30;;;;;;10012699;28;20038;-58
2021/08/01 06:41:29;;;;;;;3.15;2.03;;;19.20;76.70;;;;;;10010971;28;20141;-59
2021/08/01 06:46:19;;;;;;;3.80;1.50;;;19.40;76.60;;;;;;10012973;28;20065;-59
2021/08/01 06:51:10;;;;;;;3.97;1.85;;;19.40;76.70;;;;;;10013903;28;20088;-60
2021/08/01 06:56:01;;;;;;;4.97;2.13;;;19.40;76.70;;;;;;10010792;28;20026;-59
2021/08/01 07:00:53;;;;;;;2.80;2.08;;;19.30;76.70;;;;;;10011196;28;20083;-60
2021/08/01 07:05:44;;;;;;;4.13;2.25;;;19.60;76.20;;;;;;10012377;28;20504;-59
2021/08/01 07:10:35;;;;;;;4.53;2.20;;;19.70;76.20;;;;;;10009933;28;20046;-61
2021/08/01 07:15:26;;;;;;;3.13;2.15;;;19.80;75.90;;;;;;10010156;28;20041;-59
2021/08/01 07:20:16;;;;;;;4.53;2.20;;;19.70;76.10;;;;;;10012281;28;20448;-58
2021/08/01 07:25:08;;;;;;;2.50;2.00;;;19.60;76.60;;;;;;10010648;28;20105;-58
2021/08/01 07:29:59;;;;;;;2.60;1.85;;;19.70;76.50;;;;;;10011096;28;20030;-58
2021/08/01 07:34:50;;;;;;;4.03;2.13;;;19.70;76.40;;;;;;10009312;28;20577;-59
2021/08/01 07:39:41;;;;;;;3.25;2.20;;;20.10;76.00;;;;;;10011500;28;20075;-59
2021/08/01 07:44:35;;;;;;;2.70;1.95;;;20.20;75.70;;;;;;10011420;28;20475;-59
2021/08/01 07:49:27;;;;;;;3.20;1.95;;;20.40;75.70;;;;;;10010737;28;20022;-58
2021/08/01 07:54:17;;;;;;;5.47;2.60;;;20.30;75.60;;;;;;10010517;28;20653;-59
2021/08/01 07:59:08;;;;;;;3.53;1.88;;;20.60;75.40;;;;;;10010987;28;20033;-58
2021/08/01 08:03:59;;;;;;;5.88;2.45;;;20.60;75.20;;;;;;10009038;28;20045;-59
2021/08/01 08:08:49;;;;;;;4.45;2.05;;;20.60;75.40;;;;;;10008012;28;20555;-58
2021/08/01 08:13:40;;;;;;;4.10;2.03;;;20.80;74.90;;;;;;10006907;28;20069;-58
2021/08/01 08:18:30;;;;;;;2.63;1.98;;;21.00;74.50;;;;;;10009226;28;20362;-57
2021/08/01 08:23:23;;;;;;;3.45;1.77;;;21.10;74.40;;;;;;10008826;28;20527;-58
2021/08/01 08:28:14;;;;;;;4.63;2.40;;;21.30;74.00;;;;;;10005438;28;20018;-57
2021/08/01 08:33:04;;;;;;;3.50;1.80;;;21.50;73.60;;;;;;10007441;28;20096;-58
2021/08/01 08:37:55;;;;;;;3.03;1.45;;;21.60;73.60;;;;;;10008317;28;20084;-58
2021/08/01 08:42:48;;;;;;;5.68;3.80;;;21.80;73.30;;;;;;10002049;28;20566;-58
2021/08/01 08:47:39;;;;;;;4.15;2.63;;;21.90;73.00;;;;;;10000435;28;20014;-59
2021/08/01 08:52:31;;;;;;;4.97;2.28;;;21.60;73.20;;;;;;10003860;28;20116;-58
2021/08/01 08:57:32;;;;;;;4.38;1.90;;;21.30;73.60;;;;;;10008086;28;20080;-58
2021/08/01 09:02:23;;;;;;;4.05;1.88;;;21.20;73.40;;;;;;10007455;28;20072;-57
2021/08/01 09:07:13;;;;;;;2.65;2.05;;;21.50;72.70;;;;;;10010012;28;20044;-59
2021/08/01 09:12:04;;;;;;;3.35;1.85;;;21.80;72.10;;;;;;10004777;28;20144;-58
2021/08/01 09:16:55;;;;;;;2.17;1.60;;;22.10;71.90;;;;;;9993839;28;20104;-59
2021/08/01 09:21:45;;;;;;;2.17;1.80;;;22.10;71.70;;;;;;10010882;28;20046;-59
2021/08/01 09:26:43;;;;;;;3.13;1.95;;;22.10;71.60;;;;;;9985108;28;20209;-59
2021/08/01 09:31:34;;;;;;;5.70;2.67;;;22.10;71.00;;;;;;10025869;28;20022;-59
2021/08/01 09:36:26;;;;;;;4.45;2.53;;;22.30;71.20;;;;;;10021209;28;20292;-59
2021/08/01 09:41:19;;;;;;;5.82;1.95;;;22.60;70.10;;;;;;10010776;28;20061;-62
2021/08/01 09:46:10;;;;;;;3.92;1.90;;;22.60;69.60;;;;;;10001806;28;20037;-59
2021/08/01 09:51:06;;;;;;;3.85;1.90;;;22.90;69.20;;;;;;9993435;28;20018;-58
2021/08/01 09:56:12;;;;;;;2.88;2.30;;;22.70;69.10;;;;;;9997482;28;20026;-58
2021/08/01 10:01:04;;;;;;;3.67;2.00;;;22.90;68.20;;;;;;9998866;28;20026;-58
2021/08/01 10:06:10;;;;;;;2.90;2.03;;;23.10;68.00;;;;;;9992584;28;20034;-58
2021/08/01 10:11:17;;;;;;;5.38;2.80;;;23.00;67.40;;;;;;9996684;28;20214;-58
2021/08/01 10:16:09;;;;;;;2.40;2.00;;;23.20;67.00;;;;;;10002508;28;20054;-58
2021/08/01 10:21:01;;;;;;;2.30;2.00;;;23.20;66.80;;;;;;9999481;28;20046;-59
2021/08/01 10:25:53;;;;;;;2.85;1.95;;;23.30;66.40;;;;;;10001338;28;20563;-59
2021/08/01 10:30:45;;;;;;;5.18;2.70;;;22.70;67.10;;;;;;10004102;28;20030;-59
2021/08/01 10:35:44;;;;;;;3.75;2.28;;;22.80;66.90;;;;;;9994079;28;20515;-57
2021/08/01 10:40:35;;;;;;;2.85;1.80;;;22.80;66.70;;;;;;10003504;28;20022;-58
2021/08/01 10:45:26;;;;;;;3.33;2.15;;;22.60;66.50;;;;;;10003290;28;20034;-59
2021/08/01 10:50:25;;;;;;;3.78;2.22;;;22.70;66.20;;;;;;10000193;28;20322;-58
2021/08/01 10:55:23;;;;;;;4.13;1.85;;;22.60;66.50;;;;;;10007746;28;20037;-64
2021/08/01 11:00:14;;;;;;;5.53;2.22;;;22.60;66.50;;;;;;9996380;28;20030;-64
2021/08/01 11:05:37;;;;;;;4.60;3.25;;;22.90;65.90;;;;;;10011912;28;20055;-63
2021/08/01 11:10:29;;;;;;;3.20;2.08;;;23.20;65.50;;;;;;10010050;28;20042;-63
2021/08/01 11:15:44;;;;;;;3.72;2.45;;;23.40;65.40;;;;;;10002469;28;20041;-62
2021/08/01 11:20:34;;;;;;;3.85;2.30;;;23.70;65.00;;;;;;10011567;28;20045;-62
2021/08/01 11:25:31;;;;;;;4.25;2.70;;;23.80;64.90;;;;;;10001066;28;20030;-70
2021/08/01 11:30:22;;;;;;;3.35;2.38;;;24.00;64.30;;;;;;10006020;28;20026;-62
2021/08/01 11:35:21;;;;;;;3.63;2.10;;;24.20;64.10;;;;;;10010475;28;20040;-61
2021/08/01 11:40:12;;;;;;;3.13;1.95;;;24.00;63.90;;;;;;10011355;28;20291;-62
2021/08/01 11:45:06;;;;;;;3.05;2.08;;;24.30;63.50;;;;;;10007752;28;20604;-67
2021/08/01 11:49:58;;;;;;;4.35;1.95;;;24.10;62.80;;;;;;10006616;28;20026;-65
2021/08/01 11:54:53;;;;;;;3.83;2.33;;;24.00;62.60;;;;;;10008965;28;20567;-63
2021/08/01 11:59:50;;;;;;;2.15;1.60;;;24.10;61.90;;;;;;10005413;28;20396;-63
2021/08/01 12:04:56;;;;;;;2.50;1.88;;;24.30;61.60;;;;;;9999040;28;20047;-63
2021/08/01 12:09:46;;;;;;;2.35;1.85;;;24.20;61.10;;;;;;10009818;28;20030;-64
2021/08/01 12:14:40;;;;;;;1.85;1.50;;;24.50;61.00;;;;;;9984694;28;20066;-68
2021/08/01 12:25:48;;;;;;;2.70;1.40;;;23.60;61.50;;;;;;10006149;28;20052;-64
2021/08/01 12:30:45;;;;;;;2.15;1.40;;;21.80;63.10;;;;;;10005344;28;20056;-66
2021/08/01 12:35:40;;;;;;;3.20;1.63;;;20.20;66.10;;;;;;10024200;28;20033;-64
2021/08/01 12:40:30;;;;;;;2.63;1.52;;;18.70;68.80;;;;;;9998745;28;20037;-67
2021/08/01 12:45:22;;;;;;;2.45;1.10;;;18.40;70.60;;;;;;10008706;28;20156;-63
2021/08/01 12:50:15;;;;;;;3.15;1.85;;;17.90;71.20;;;;;;9994427;28;20025;-65
2021/08/01 12:55:08;;;;;;;3.80;1.60;;;18.00;72.30;;;;;;10007203;28;20364;-64
2021/08/01 13:00:16;;;;;;;2.78;1.42;;;18.20;72.00;;;;;;10007488;28;20034;-62
2021/08/01 13:05:22;;;;;;;3.20;1.38;;;18.50;72.10;;;;;;9990883;28;20049;-64
2021/08/01 13:10:14;;;;;;;3.97;1.45;;;19.10;71.50;;;;;;10010089;28;20022;-66
2021/08/01 13:15:28;;;;;;;3.47;1.55;;;19.30;71.10;;;;;;10004568;28;20109;-63
2021/08/01 13:20:41;;;;;;;3.13;1.40;;;19.80;72.00;;;;;;10008778;28;20033;-65
2021/08/01 13:25:35;;;;;;;3.45;1.80;;;20.30;71.70;;;;;;9997738;28;20102;-64
2021/08/01 13:30:26;;;;;;;3.17;2.03;;;20.80;71.50;;;;;;10002152;28;20028;-65
2021/08/01 13:35:22;;;;;;;2.10;1.20;;;21.10;71.80;;;;;;10007221;28;20223;-65
2021/08/01 13:40:13;;;;;;;2.17;1.30;;;21.70;72.30;;;;;;10007161;28;20080;-68
2021/08/01 13:45:11;;;;;;;2.50;1.25;;;26.30;67.50;;;;;;10002435;28;20088;-60
2021/08/01 13:50:11;;;;;;;2.30;1.80;;;29.30;64.00;;;;;;9998183;28;20108;-61
2021/08/01 13:55:05;;;;;;;1.75;1.35;;;30.20;61.40;;;;;;10001058;28;20108;-61
2021/08/01 13:59:57;;;;;;;4.95;2.00;;;29.20;62.20;;;;;;9991678;28;20061;-59
2021/08/01 14:04:48;;;;;;;4.53;1.73;;;29.00;60.90;;;;;;9997385;28;20034;-60
2021/08/01 14:09:39;;;;;;;2.58;1.60;;;26.90;64.40;;;;;;10002662;28;20037;-60
2021/08/01 14:14:30;;;;;;;4.45;1.50;;;26.70;65.00;;;;;;10001718;28;20038;-61
2021/08/01 14:19:21;;;;;;;4.32;2.35;;;28.10;61.90;;;;;;10007695;28;20419;-61
2021/08/01 14:24:14;;;;;;;2.25;2.05;;;29.80;59.60;;;;;;10005324;28;20056;-62
2021/08/01 14:29:07;;;;;;;3.08;1.40;;;30.60;57.80;;;;;;10001701;28;20057;-61
2021/08/01 14:34:02;;;;;;;2.08;1.35;;;31.20;56.90;;;;;;10011114;28;20053;-61
2021/08/01 14:38:53;;;;;;;2.22;1.30;;;28.90;58.60;;;;;;10016173;28;20409;-60
2021/08/01 14:43:44;;;;;;;1.70;1.13;;;27.00;61.90;;;;;;10013371;28;20030;-59
2021/08/01 14:48:37;;;;;;;1.42;1.20;;;26.00;62.30;;;;;;10012151;28;20030;-64
2021/08/01 14:53:27;;;;;;;2.85;1.45;;;25.30;62.60;;;;;;10013558;28;20554;-61
2021/08/01 14:58:25;;;;;;;2.08;1.70;;;26.80;59.90;;;;;;10004283;28;20080;-63
2021/08/01 15:03:27;;;;;;;2.45;1.67;;;28.80;55.70;;;;;;10012501;28;20136;-62
2021/08/01 15:08:40;;;;;;;2.92;1.40;;;29.10;55.30;;;;;;10010104;28;20030;-63
2021/08/01 15:13:44;;;;;;;2.92;1.05;;;29.40;54.70;;;;;;10009218;28;20069;-62
2021/08/01 15:18:42;;;;;;;2.17;1.17;;;30.00;53.00;;;;;;10004875;28;20029;-60
2021/08/01 15:23:59;;;;;;;1.40;1.02;;;28.70;53.70;;;;;;10007877;28;20046;-63
2021/08/01 15:28:49;;;;;;;1.48;1.30;;;27.50;52.30;;;;;;10009409;28;20026;-62
2021/08/01 15:33:40;;;;;;;1.77;1.20;;;27.30;53.20;;;;;;10008092;28;20038;-62
2021/08/01 15:38:31;;;;;;;1.05;0.98;;;26.20;54.10;;;;;;9998553;28;20026;-60
2021/08/01 15:43:22;;;;;;;1.70;1.30;;;24.80;56.10;;;;;;10005601;28;20160;-59
2021/08/01 15:48:13;;;;;;;2.38;1.92;;;25.90;54.80;;;;;;9998601;28;20026;-60
2021/08/01 15:53:12;;;;;;;2.33;1.30;;;27.80;52.10;;;;;;10004627;28;20034;-59
2021/08/01 15:58:15;;;;;;;1.23;0.88;;;29.70;48.90;;;;;;10009765;28;20029;-61
2021/08/01 16:03:09;;;;;;;;;;;30.10;48.20;;;;;;10002256;28;20049;-60
2021/08/01 16:08:07;;;;;;;1.90;1.40;;;29.80;47.90;;;;;;10012367;28;19909;-63
2021/08/01 16:13:07;;;;;;;1.20;1.10;;;31.30;46.10;;;;;;10008132;28;20045;-60
2021/08/01 16:17:58;;;;;;;1.67;1.10;;;31.50;45.20;;;;;;10007264;28;20026;-60
2021/08/01 16:22:50;;;;;;;1.00;0.90;;;31.30;45.00;;;;;;10002088;28;20053;-59
2021/08/01 16:27:41;;;;;;;1.70;1.15;;;31.90;42.90;;;;;;10009516;28;20028;-61
2021/08/01 16:32:35;;;;;;;1.20;1.10;;;32.90;41.60;;;;;;10007959;28;20416;-61
2021/08/01 16:37:26;;;;;;;1.20;1.08;;;32.10;41.70;;;;;;10010383;28;20053;-60
2021/08/01 16:42:43;;;;;;;2.13;1.60;;;30.60;43.70;;;;;;10007279;28;20575;-62
2021/08/01 16:48:11;;;;;;;2.95;2.00;;;28.60;46.20;;;;;;9999421;28;20032;-61
2021/08/01 16:53:38;;;;;;;2.13;1.30;;;27.80;47.20;;;;;;10009256;28;20018;-61
2021/08/01 16:58:40;;;;;;;2.45;1.20;;;26.90;49.40;;;;;;10003537;28;20030;-62
2021/08/01 17:03:36;;;;;;;1.75;1.55;;;26.90;49.50;;;;;;10006811;28;20033;-61
2021/08/01 17:08:47;;;;;;;1.80;1.45;;;27.60;49.40;;;;;;9995345;28;20034;-62
2021/08/01 17:13:39;;;;;;;1.73;1.30;;;30.80;43.00;;;;;;10002666;28;20036;-61
2021/08/01 17:18:32;;;;;;;2.80;1.38;;;27.40;49.30;;;;;;10004469;28;20019;-62
2021/08/01 17:23:23;;;;;;;2.47;1.52;;;30.30;45.30;;;;;;10008630;28;20054;-61
2021/08/01 17:28:13;;;;;;;1.60;1.20;;;31.60;43.90;;;;;;9997840;28;20049;-63
2021/08/01 17:33:04;;;;;;;2.60;1.70;;;32.20;43.70;;;;;;10007708;28;20030;-62
2021/08/01 17:37:58;;;;;;;3.97;1.17;;;32.20;43.60;;;;;;10003657;28;20049;-62
2021/08/01 17:43:00;;;;;;;;;;;28.90;47.90;;;;;;10021867;28;20408;-61
2021/08/01 17:47:51;;;;;;;1.40;1.15;;;26.10;52.30;;;;;;9996803;28;20446;-63
2021/08/01 17:52:53;;;;;;;3.95;2.88;;;24.80;53.30;;;;;;10003738;28;20113;-62
2021/08/01 17:57:46;;;;;;;4.07;2.95;;;23.90;54.20;;;;;;10017402;28;20033;-61
2021/08/01 18:02:36;;;;;;;3.65;1.60;;;23.30;54.60;;;;;;10006839;28;20052;-62
2021/08/01 18:07:45;;;;;;;2.20;1.10;;;23.40;54.20;;;;;;10008072;28;20030;-61
2021/08/01 18:12:57;;;;;;;1.27;0.88;;;23.00;55.00;;;;;;10001348;28;20092;-63
2021/08/01 18:17:49;;;;;;;1.80;1.35;;;22.80;55.30;;;;;;10000449;28;20034;-61
2021/08/01 18:22:44;;;;;;;2.38;1.50;;;22.40;55.90;;;;;;10005690;28;20072;-61
2021/08/01 18:27:35;;;;;;;1.63;1.05;;;22.10;56.50;;;;;;10002257;28;20050;-62
2021/08/01 18:32:29;;;;;;;1.13;0.85;;;22.00;57.00;;;;;;10007794;28;20061;-61
2021/08/01 18:37:25;;;;;;;3.30;1.73;;;21.70;57.90;;;;;;10003734;28;20116;-62
2021/08/01 18:42:17;;;;;;;1.33;1.10;;;21.70;58.00;;;;;;10006404;28;20633;-62
2021/08/01 18:47:10;;;;;;;1.83;1.00;;;21.70;58.20;;;;;;10004895;28;20022;-61
2021/08/01 18:52:03;;;;;;;2.03;1.20;;;21.70;58.50;;;;;;10002602;28;20062;-62
2021/08/01 18:56:54;;;;;;;2.47;1.05;;;21.50;59.00;;;;;;10000516;28;20103;-61
2021/08/01 19:01:47;;;;;;;2.80;1.35;;;21.50;59.40;;;;;;10006349;28;20117;-61
2021/08/01 19:06:38;;;;;;;2.55;1.30;;;21.10;60.70;;;;;;9996872;28;20664;-62
2021/08/01 19:11:29;;;;;;;1.50;1.10;;;21.20;60.30;;;;;;10005793;28;20030;-61
2021/08/01 19:16:25;;;;;;;1.27;1.17;;;21.10;61.00;;;;;;10006612;28;20573;-62
2021/08/01 19:21:21;;;;;;;2.10;1.40;;;21.00;61.50;;;;;;10010919;28;20125;-62
2021/08/01 19:26:15;;;;;;;2.50;1.40;;;20.90;61.80;;;;;;10003628;28;20042;-61
2021/08/01 19:31:08;;;;;;;2.65;1.20;;;21.00;61.80;;;;;;10004896;28;20046;-63
2021/08/01 19:36:01;;;;;;;3.65;1.70;;;20.80;62.40;;;;;;10008627;28;20038;-60
2021/08/01 19:40:52;;;;;;;1.88;1.33;;;20.50;63.30;;;;;;10009881;28;20457;-61
2021/08/01 19:45:44;;;;;;;3.05;1.30;;;20.50;63.40;;;;;;10002679;28;20463;-63
2021/08/01 19:50:35;;;;;;;3.90;1.20;;;20.20;64.00;;;;;;10009090;28;20042;-61
2021/08/01 19:55:27;;;;;;;1.23;1.13;;;20.20;64.40;;;;;;10007542;28;20019;-61
2021/08/01 20:00:18;;;;;;;2.30;1.35;;;20.30;64.30;;;;;;10006510;28;20102;-61
2021/08/01 20:05:13;;;;;;;2.78;1.50;;;20.10;65.20;;;;;;10001831;28;20042;-62
2021/08/01 20:10:04;;;;;;;;;;;20.10;65.30;;;;;;10005086;28;20030;-61
2021/08/01 20:14:55;;;;;;;7.40;4.50;;;20.10;65.80;;;;;;10004055;28;19913;-61
2021/08/01 20:19:46;;;;;;;3.85;1.58;;;20.00;65.60;;;;;;10010981;28;20416;-62
2021/08/01 20:24:36;;;;;;;4.70;1.50;;;19.90;66.00;;;;;;10008778;28;20049;-62
2021/08/01 20:29:27;;;;;;;4.53;2.03;;;19.90;66.20;;;;;;10005601;28;20034;-63
2021/08/01 20:34:18;;;;;;;1.65;1.33;;;19.90;66.70;;;;;;10009129;28;20108;-59
2021/08/01 20:39:08;;;;;;;5.20;1.33;;;20.20;66.00;;;;;;10001723;28;20136;-60
2021/08/01 20:43:59;;;;;;;1.95;1.30;;;20.30;66.40;;;;;;10011109;28;20034;-60
2021/08/01 20:48:50;;;;;;;4.53;1.60;;;20.60;65.70;;;;;;10007473;28;20399;-61
2021/08/01 20:53:40;;;;;;;2.28;1.38;;;20.60;65.70;;;;;;10011046;28;20424;-60
2021/08/01 20:58:31;;;;;;;1.75;1.65;;;20.70;65.70;;;;;;10003429;28;20459;-61
2021/08/01 21:03:22;;;;;;;1.45;0.98;;;20.70;65.90;;;;;;10011970;28;20795;-61
2021/08/01 21:08:13;;;;;;;1.52;1.20;;;20.60;66.20;;;;;;10008818;28;20030;-60
2021/08/01 21:13:03;;;;;;;2.33;1.42;;;20.70;66.30;;;;;;10007605;28;20036;-62
2021/08/01 21:17:55;;;;;;;3.53;1.27;;;20.80;66.20;;;;;;10004427;28;20018;-62
2021/08/01 21:22:45;;;;;;;1.60;1.20;;;20.40;66.90;;;;;;10001276;28;20057;-63
2021/08/01 21:27:36;;;;;;;2.03;1.30;;;20.10;67.60;;;;;;10006584;28;20393;-61
2021/08/01 21:32:27;;;;;;;2.58;1.40;;;20.10;67.80;;;;;;10005959;28;20608;-62
2021/08/01 21:37:19;;;;;;;4.05;1.15;;;20.00;68.20;;;;;;10006406;28;20025;-61
2021/08/01 21:42:10;;;;;;;1.52;1.10;;;20.00;68.00;;;;;;10004866;28;20038;-61
2021/08/01 21:47:00;;;;;;;1.60;1.10;;;20.00;68.00;;;;;;10004783;28;20112;-61
2021/08/01 21:51:51;;;;;;;3.05;1.27;;;19.90;68.10;;;;;;9999854;28;20121;-61
2021/08/01 21:56:42;;;;;;;2.22;1.40;;;19.70;68.50;;;;;;10000787;28;20496;-62
2021/08/01 22:01:34;;;;;;;3.70;1.00;;;19.60;68.80;;;;;;9995871;28;20042;-63
2021/08/01 22:06:27;;;;;;;2.00;1.80;;;19.50;69.10;;;;;;10004576;28;20062;-59
2021/08/01 22:11:18;;;;;;;1.08;0.98;;;19.60;69.20;;;;;;10004197;28;20030;-58
2021/08/01 22:16:10;;;;;;;3.10;1.13;;;19.70;69.00;;;;;;10003487;28;20038;-56
2021/08/01 22:21:02;;;;;;;2.08;1.25;;;19.70;68.90;;;;;;10007828;28;20109;-58
2021/08/01 22:25:55;;;;;;;1.92;1.00;;;19.70;69.20;;;;;;10004704;28;20049;-60
2021/08/01 22:30:47;;;;;;;2.47;1.13;;;19.70;69.00;;;;;;10005185;28;20057;-59
2021/08/01 22:35:40;;;;;;;1.48;1.05;;;19.70;69.00;;;;;;10021420;28;20313;-59
2021/08/01 22:40:34;;;;;;;2.17;1.25;;;19.70;69.10;;;;;;10013152;28;20053;-59
2021/08/01 22:45:25;;;;;;;3.17;1.15;;;19.80;69.40;;;;;;10021300;28;20283;-58
2021/08/01 22:50:16;;;;;;;1.88;1.10;;;20.00;69.20;;;;;;10011410;28;20026;-59
2021/08/01 22:55:09;;;;;;;2.35;1.33;;;19.70;69.30;;;;;;10008788;28;20034;-60
2021/08/01 22:59:59;;;;;;;2.22;0.98;;;19.60;69.90;;;;;;10010612;28;20073;-60
2021/08/01 23:05:04;;;;;;;2.28;1.02;;;19.50;70.10;;;;;;10012412;28;20845;-59
2021/08/01 23:09:58;;;;;;;1.90;1.20;;;19.70;69.50;;;;;;10009083;28;20026;-61
2021/08/01 23:15:08;;;;;;;1.60;1.00;;;19.60;69.70;;;;;;10012769;28;20037;-57
2021/08/01 23:20:08;;;;;;;1.65;1.35;;;19.60;69.80;;;;;;10009557;28;20030;-59
2021/08/01 23:25:05;;;;;;;1.70;1.10;;;19.70;69.70;;;;;;10008165;28;20060;-60
2021/08/01 23:29:56;;;;;;;1.98;1.13;;;19.60;69.90;;;;;;10002863;28;20713;-60
2021/08/01 23:34:49;;;;;;;1.58;0.90;;;19.60;69.90;;;;;;10012535;28;20057;-60
2021/08/01 23:39:40;;;;;;;1.63;1.00;;;19.60;70.20;;;;;;10010077;28;20104;-59
2021/08/01 23:44:33;;;;;;;1.50;0.80;;;19.50;70.10;;;;;;10012001;28;20034;-60
2021/08/01 23:49:25;;;;;;;1.35;0.98;;;19.50;70.50;;;;;;10011319;28;20037;-60
2021/08/01 23:54:29;;;;;;;2.47;1.20;;;19.40;70.50;;;;;;10005794;28;20025;-59
2021/08/01 23:59:32;;;;;;;1.80;1.10;;;19.50;70.60;;;;;;10005085;28;20392;-59
